sensor_id;sensor_type;location;lat;lon;timestamp;pressure;altitude;pressure_sealevel;temperature;humidity
33191;BME280;19554;42.652;23.364;2022-08-24T00:02:09;94328.81;;;20.86;70.43
33191;BME280;19554;42.652;23.364;2022-08-24T00:04:35;94366.88;;;21.13;70.50
33191;BME280;19554;42.652;23.364;2022-08-24T00:07:02;94349.59;;;21.01;70.42
33191;BME280;19554;42.652;23.364;2022-08-24T00:09:29;94366.72;;;21.05;70.09
33191;BME280;19554;42.652;23.364;2022-08-24T00:11:55;94368.72;;;21.09;70.06
33191;BME280;19554;42.652;23.364;2022-08-24T00:14:20;94367.31;;;20.95;70.00
33191;BME280;19554;42.652;23.364;2022-08-24T00:16:46;94370.34;;;20.90;70.64
33191;BME280;19554;42.652;23.364;2022-08-24T00:19:11;94380.91;;;20.76;71.22
33191;BME280;19554;42.652;23.364;2022-08-24T00:21:37;94388.63;;;20.74;72.20
33191;BME280;19554;42.652;23.364;2022-08-24T00:24:03;94372.91;;;20.64;72.17
33191;BME280;19554;42.652;23.364;2022-08-24T00:26:28;94394.47;;;20.76;72.29
33191;BME280;19554;42.652;23.364;2022-08-24T00:28:54;94396.47;;;20.79;72.40
33191;BME280;19554;42.652;23.364;2022-08-24T00:31:19;94410.47;;;20.81;72.51
33191;BME280;19554;42.652;23.364;2022-08-24T00:33:45;94401.09;;;20.78;72.59
33191;BME280;19554;42.652;23.364;2022-08-24T00:36:10;94413.53;;;20.79;72.69
33191;BME280;19554;42.652;23.364;2022-08-24T00:38:36;94421.94;;;20.74;72.91
33191;BME280;19554;42.652;23.364;2022-08-24T00:41:03;94411.88;;;20.75;72.61
33191;BME280;19554;42.652;23.364;2022-08-24T00:43:29;94364.59;;;20.37;71.24
33191;BME280;19554;42.652;23.364;2022-08-24T00:48:35;94370.91;;;20.41;70.75
33191;BME280;19554;42.652;23.364;2022-08-24T00:51:07;94330.69;;;20.08;71.39
33191;BME280;19554;42.652;23.364;2022-08-24T00:53:43;94417.88;;;20.65;71.65
33191;BME280;19554;42.652;23.364;2022-08-24T00:56:15;94417.47;;;20.63;71.71
33191;BME280;19554;42.652;23.364;2022-08-24T00:58:46;94417.88;;;20.65;71.83
33191;BME280;19554;42.652;23.364;2022-08-24T01:01:12;94431.09;;;20.66;71.50
33191;BME280;19554;42.652;23.364;2022-08-24T01:03:40;94432.56;;;20.64;71.63
33191;BME280;19554;42.652;23.364;2022-08-24T01:06:07;94387.09;;;20.38;71.58
33191;BME280;19554;42.652;23.364;2022-08-24T01:08:33;94354.00;;;20.12;71.39
33191;BME280;19554;42.652;23.364;2022-08-24T01:11:12;94434.13;;;20.65;71.58
33191;BME280;19554;42.652;23.364;2022-08-24T01:13:41;94445.00;;;20.65;71.36
33191;BME280;19554;42.652;23.364;2022-08-24T01:16:09;94441.16;;;20.66;71.30
33191;BME280;19554;42.652;23.364;2022-08-24T01:18:35;94445.00;;;20.65;71.34
33191;BME280;19554;42.652;23.364;2022-08-24T01:26:11;94452.00;;;20.66;71.99
33191;BME280;19554;42.652;23.364;2022-08-24T01:28:40;94452.78;;;20.66;72.13
33191;BME280;19554;42.652;23.364;2022-08-24T01:31:06;94452.84;;;20.70;72.03
33191;BME280;19554;42.652;23.364;2022-08-24T01:33:32;94454.50;;;20.74;71.12
33191;BME280;19554;42.652;23.364;2022-08-24T01:36:03;94455.28;;;20.75;70.41
33191;BME280;19554;42.652;23.364;2022-08-24T01:38:30;94458.44;;;20.77;70.28
33191;BME280;19554;42.652;23.364;2022-08-24T01:41:00;94438.00;;;20.64;70.82
33191;BME280;19554;42.652;23.364;2022-08-24T01:43:26;94441.16;;;20.66;70.47
33191;BME280;19554;42.652;23.364;2022-08-24T01:45:52;94458.88;;;20.79;70.50
33191;BME280;19554;42.652;23.364;2022-08-24T01:48:19;94458.06;;;20.78;70.29
33191;BME280;19554;42.652;23.364;2022-08-24T01:50:44;94456.00;;;20.72;70.19
33191;BME280;19554;42.652;23.364;2022-08-24T01:53:10;94414.88;;;20.50;70.47
33191;BME280;19554;42.652;23.364;2022-08-24T01:55:36;94454.63;;;20.81;71.06
33191;BME280;19554;42.652;23.364;2022-08-24T01:58:02;94420.16;;;20.63;71.48
33191;BME280;19554;42.652;23.364;2022-08-24T02:00:29;94459.28;;;20.81;71.69
33191;BME280;19554;42.652;23.364;2022-08-24T02:02:55;94462.22;;;20.72;71.95
33191;BME280;19554;42.652;23.364;2022-08-24T02:05:21;94414.63;;;20.24;72.96
33191;BME280;19554;42.652;23.364;2022-08-24T02:07:49;94458.34;;;20.38;73.89
33191;BME280;19554;42.652;23.364;2022-08-24T02:10:15;94456.75;;;20.37;74.66
33191;BME280;19554;42.652;23.364;2022-08-24T02:12:42;94466.63;;;20.45;74.47
33191;BME280;19554;42.652;23.364;2022-08-24T02:15:09;94471.81;;;20.50;73.71
33191;BME280;19554;42.652;23.364;2022-08-24T02:17:36;94436.13;;;20.32;73.85
33191;BME280;19554;42.652;23.364;2022-08-24T02:20:04;94474.25;;;20.55;74.19
33191;BME280;19554;42.652;23.364;2022-08-24T02:22:30;94496.88;;;20.63;74.59
33191;BME280;19554;42.652;23.364;2022-08-24T02:24:56;94484.56;;;20.66;74.47
33191;BME280;19554;42.652;23.364;2022-08-24T02:27:21;94488.47;;;20.68;74.46
33191;BME280;19554;42.652;23.364;2022-08-24T02:29:47;94484.69;;;20.73;74.39
33191;BME280;19554;42.652;23.364;2022-08-24T02:32:12;94489.75;;;20.74;73.69
33191;BME280;19554;42.652;23.364;2022-08-24T02:34:38;94481.69;;;20.78;73.53
33191;BME280;19554;42.652;23.364;2022-08-24T02:37:04;94482.41;;;20.75;73.70
33191;BME280;19554;42.652;23.364;2022-08-24T02:39:30;94485.63;;;20.80;73.97
33191;BME280;19554;42.652;23.364;2022-08-24T02:41:55;94473.84;;;20.73;73.49
33191;BME280;19554;42.652;23.364;2022-08-24T02:44:21;94435.31;;;20.48;73.01
33191;BME280;19554;42.652;23.364;2022-08-24T02:46:47;94490.41;;;20.87;72.95
33191;BME280;19554;42.652;23.364;2022-08-24T02:49:12;94479.06;;;20.81;72.84
33191;BME280;19554;42.652;23.364;2022-08-24T02:51:41;94459.69;;;20.64;72.25
33191;BME280;19554;42.652;23.364;2022-08-24T02:54:07;94451.28;;;20.69;71.97
33191;BME280;19554;42.652;23.364;2022-08-24T02:56:33;94482.28;;;20.87;71.89
33191;BME280;19554;42.652;23.364;2022-08-24T02:58:59;94495.13;;;20.90;71.48
33191;BME280;19554;42.652;23.364;2022-08-24T03:01:26;94425.97;;;20.45;71.39
33191;BME280;19554;42.652;23.364;2022-08-24T03:03:52;94413.31;;;20.33;70.97
33191;BME280;19554;42.652;23.364;2022-08-24T03:06:18;94410.97;;;20.32;71.05
33191;BME280;19554;42.652;23.364;2022-08-24T03:08:44;94491.13;;;20.84;71.06
33191;BME280;19554;42.652;23.364;2022-08-24T03:11:11;94489.56;;;20.83;71.21
33191;BME280;19554;42.652;23.364;2022-08-24T03:13:37;94483.34;;;20.82;71.56
33191;BME280;19554;42.652;23.364;2022-08-24T03:16:04;94489.91;;;20.81;71.22
33191;BME280;19554;42.652;23.364;2022-08-24T03:18:29;94484.84;;;20.80;71.61
33191;BME280;19554;42.652;23.364;2022-08-24T03:20:57;94486.00;;;20.79;71.68
33191;BME280;19554;42.652;23.364;2022-08-24T03:23:24;94432.44;;;20.41;71.41
33191;BME280;19554;42.652;23.364;2022-08-24T03:25:53;94495.97;;;20.75;71.38
33191;BME280;19554;42.652;23.364;2022-08-24T03:28:21;94494.00;;;20.72;71.51
33191;BME280;19554;42.652;23.364;2022-08-24T03:30:47;94496.59;;;20.68;71.32
33191;BME280;19554;42.652;23.364;2022-08-24T03:33:13;94493.03;;;20.64;71.09
33191;BME280;19554;42.652;23.364;2022-08-24T03:35:39;94439.63;;;20.33;71.28
33191;BME280;19554;42.652;23.364;2022-08-24T03:38:05;94483.59;;;20.58;71.17
33191;BME280;19554;42.652;23.364;2022-08-24T03:40:32;94499.31;;;20.68;71.30
33191;BME280;19554;42.652;23.364;2022-08-24T03:42:59;94503.88;;;20.64;71.24
33191;BME280;19554;42.652;23.364;2022-08-24T03:45:28;94496.09;;;20.63;71.06
33191;BME280;19554;42.652;23.364;2022-08-24T03:47:54;94495.25;;;20.58;70.94
33191;BME280;19554;42.652;23.364;2022-08-24T03:50:20;94504.88;;;20.56;71.70
33191;BME280;19554;42.652;23.364;2022-08-24T03:52:47;94505.19;;;20.54;71.83
33191;BME280;19554;42.652;23.364;2022-08-24T03:55:12;94507.06;;;20.50;72.99
33191;BME280;19554;42.652;23.364;2022-08-24T03:57:38;94502.59;;;20.42;72.90
33191;BME280;19554;42.652;23.364;2022-08-24T04:00:06;94508.88;;;20.46;73.22
33191;BME280;19554;42.652;23.364;2022-08-24T04:02:33;94509.75;;;20.50;73.27
33191;BME280;19554;42.652;23.364;2022-08-24T04:04:58;94511.44;;;20.55;73.08
33191;BME280;19554;42.652;23.364;2022-08-24T04:07:24;94503.38;;;20.58;73.02
33191;BME280;19554;42.652;23.364;2022-08-24T04:09:50;94498.38;;;20.61;73.01
33191;BME280;19554;42.652;23.364;2022-08-24T04:12:16;94495.25;;;20.58;72.85
33191;BME280;19554;42.652;23.364;2022-08-24T04:14:41;94498.81;;;20.63;72.75
33191;BME280;19554;42.652;23.364;2022-08-24T04:17:07;94512.44;;;20.66;72.29
33191;BME280;19554;42.652;23.364;2022-08-24T04:19:33;94507.09;;;20.70;72.44
33191;BME280;19554;42.652;23.364;2022-08-24T04:21:58;94510.34;;;20.75;72.38
33191;BME280;19554;42.652;23.364;2022-08-24T04:24:25;94491.81;;;20.62;71.79
33191;BME280;19554;42.652;23.364;2022-08-24T04:26:51;94513.38;;;20.74;72.14
33191;BME280;19554;42.652;23.364;2022-08-24T04:29:17;94510.41;;;20.79;72.01
33191;BME280;19554;42.652;23.364;2022-08-24T04:31:45;94509.72;;;20.82;72.00
33191;BME280;19554;42.652;23.364;2022-08-24T04:34:13;94511.41;;;20.90;71.95
33191;BME280;19554;42.652;23.364;2022-08-24T04:36:41;94505.84;;;20.83;71.97
33191;BME280;19554;42.652;23.364;2022-08-24T04:39:07;94518.56;;;20.98;71.87
33191;BME280;19554;42.652;23.364;2022-08-24T04:41:32;94517.91;;;21.05;71.74
33191;BME280;19554;42.652;23.364;2022-08-24T04:43:58;94514.09;;;21.06;72.27
33191;BME280;19554;42.652;23.364;2022-08-24T04:46:24;94525.09;;;21.13;72.23
33191;BME280;19554;42.652;23.364;2022-08-24T04:48:49;94518.22;;;21.19;72.04
33191;BME280;19554;42.652;23.364;2022-08-24T04:51:16;94518.28;;;21.23;71.31
33191;BME280;19554;42.652;23.364;2022-08-24T04:53:44;94474.03;;;20.99;71.00
33191;BME280;19554;42.652;23.364;2022-08-24T04:56:13;94480.84;;;21.13;70.53
33191;BME280;19554;42.652;23.364;2022-08-24T04:58:39;94514.88;;;21.45;70.03
33191;BME280;19554;42.652;23.364;2022-08-24T05:01:08;94509.59;;;21.52;69.98
33191;BME280;19554;42.652;23.364;2022-08-24T05:03:34;94517.47;;;21.58;69.81
33191;BME280;19554;42.652;23.364;2022-08-24T05:06:00;94512.88;;;21.62;69.65
33191;BME280;19554;42.652;23.364;2022-08-24T05:08:25;94514.94;;;21.68;69.63
33191;BME280;19554;42.652;23.364;2022-08-24T05:10:51;94509.97;;;21.74;69.79
33191;BME280;19554;42.652;23.364;2022-08-24T05:13:16;94513.97;;;21.80;69.59
33191;BME280;19554;42.652;23.364;2022-08-24T05:15:45;94460.69;;;21.52;70.60
33191;BME280;19554;42.652;23.364;2022-08-24T05:18:12;94516.16;;;21.71;71.14
33191;BME280;19554;42.652;23.364;2022-08-24T05:20:42;94510.56;;;21.64;71.15
33191;BME280;19554;42.652;23.364;2022-08-24T05:23:08;94505.06;;;21.60;72.13
33191;BME280;19554;42.652;23.364;2022-08-24T05:25:34;94504.16;;;21.52;72.77
33191;BME280;19554;42.652;23.364;2022-08-24T05:27:59;94510.50;;;21.60;71.73
33191;BME280;19554;42.652;23.364;2022-08-24T05:30:25;94511.09;;;21.50;72.07
33191;BME280;19554;42.652;23.364;2022-08-24T05:32:50;94503.44;;;21.56;72.39
33191;BME280;19554;42.652;23.364;2022-08-24T05:35:16;94475.25;;;21.41;72.70
33191;BME280;19554;42.652;23.364;2022-08-24T05:37:41;94500.72;;;21.56;72.49
33191;BME280;19554;42.652;23.364;2022-08-24T05:40:09;94498.25;;;21.70;69.88
33191;BME280;19554;42.652;23.364;2022-08-24T05:42:36;94496.28;;;21.90;69.23
33191;BME280;19554;42.652;23.364;2022-08-24T05:45:01;94475.22;;;21.83;68.69
33191;BME280;19554;42.652;23.364;2022-08-24T05:47:27;94488.84;;;22.10;68.45
33191;BME280;19554;42.652;23.364;2022-08-24T05:49:52;94495.38;;;22.28;67.14
33191;BME280;19554;42.652;23.364;2022-08-24T05:52:20;94491.69;;;22.40;66.50
33191;BME280;19554;42.652;23.364;2022-08-24T05:54:51;94498.84;;;22.52;66.29
33191;BME280;19554;42.652;23.364;2022-08-24T05:57:17;94500.38;;;22.49;65.47
33191;BME280;19554;42.652;23.364;2022-08-24T05:59:42;94499.44;;;22.38;65.45
33191;BME280;19554;42.652;23.364;2022-08-24T06:02:08;94492.47;;;22.40;66.36
33191;BME280;19554;42.652;23.364;2022-08-24T06:04:33;94496.25;;;22.59;65.42
33191;BME280;19554;42.652;23.364;2022-08-24T06:06:59;94475.94;;;22.53;64.98
33191;BME280;19554;42.652;23.364;2022-08-24T06:09:24;94501.03;;;22.69;63.79
33191;BME280;19554;42.652;23.364;2022-08-24T06:11:50;94461.19;;;22.54;63.71
33191;BME280;19554;42.652;23.364;2022-08-24T06:14:17;94508.81;;;22.67;64.34
33191;BME280;19554;42.652;23.364;2022-08-24T06:16:45;94506.19;;;22.74;63.82
33191;BME280;19554;42.652;23.364;2022-08-24T06:19:12;94497.78;;;22.86;62.96
33191;BME280;19554;42.652;23.364;2022-08-24T06:21:38;94498.47;;;23.06;63.32
33191;BME280;19554;42.652;23.364;2022-08-24T06:24:05;94500.59;;;23.20;61.73
33191;BME280;19554;42.652;23.364;2022-08-24T06:26:31;94503.38;;;23.27;62.41
33191;BME280;19554;42.652;23.364;2022-08-24T06:29:15;94504.72;;;23.40;60.84
33191;BME280;19554;42.652;23.364;2022-08-24T06:31:43;94497.75;;;23.43;61.20
33191;BME280;19554;42.652;23.364;2022-08-24T06:34:11;94427.38;;;23.11;61.08
33191;BME280;19554;42.652;23.364;2022-08-24T06:36:37;94481.50;;;23.54;60.25
33191;BME280;19554;42.652;23.364;2022-08-24T06:39:03;94497.19;;;23.64;61.65
33191;BME280;19554;42.652;23.364;2022-08-24T06:41:29;94495.56;;;23.56;59.43
33191;BME280;19554;42.652;23.364;2022-08-24T06:43:54;94495.25;;;23.64;59.96
33191;BME280;19554;42.652;23.364;2022-08-24T06:46:20;94504.19;;;23.65;59.95
33191;BME280;19554;42.652;23.364;2022-08-24T06:48:46;94507.53;;;23.81;59.81
33191;BME280;19554;42.652;23.364;2022-08-24T06:51:14;94489.63;;;23.84;59.75
33191;BME280;19554;42.652;23.364;2022-08-24T06:53:40;94513.13;;;23.99;59.76
33191;BME280;19554;42.652;23.364;2022-08-24T06:56:06;94507.09;;;24.20;57.75
33191;BME280;19554;42.652;23.364;2022-08-24T06:58:32;94517.19;;;24.16;58.71
33191;BME280;19554;42.652;23.364;2022-08-24T07:01:07;94520.47;;;24.36;57.78
33191;BME280;19554;42.652;23.364;2022-08-24T07:03:34;94516.69;;;24.48;56.85
33191;BME280;19554;42.652;23.364;2022-08-24T07:06:01;94455.94;;;24.06;56.48
33191;BME280;19554;42.652;23.364;2022-08-24T07:08:26;94522.97;;;24.52;57.18
33191;BME280;19554;42.652;23.364;2022-08-24T07:10:52;94518.50;;;24.85;56.51
33191;BME280;19554;42.652;23.364;2022-08-24T07:13:17;94532.19;;;24.88;55.50
33191;BME280;19554;42.652;23.364;2022-08-24T07:15:43;94474.16;;;23.95;55.86
33191;BME280;19554;42.652;23.364;2022-08-24T07:18:13;94535.41;;;24.46;56.83
33191;BME280;19554;42.652;23.364;2022-08-24T07:20:39;94538.13;;;24.46;56.74
33191;BME280;19554;42.652;23.364;2022-08-24T07:23:05;94515.28;;;24.24;57.03
33191;BME280;19554;42.652;23.364;2022-08-24T07:25:32;94549.50;;;24.55;56.92
33191;BME280;19554;42.652;23.364;2022-08-24T07:27:58;94530.75;;;24.50;56.02
33191;BME280;19554;42.652;23.364;2022-08-24T07:30:27;94534.72;;;24.59;56.01
33191;BME280;19554;42.652;23.364;2022-08-24T07:32:54;94530.09;;;24.67;54.52
33191;BME280;19554;42.652;23.364;2022-08-24T07:35:21;94529.41;;;24.85;55.87
33191;BME280;19554;42.652;23.364;2022-08-24T07:37:46;94451.34;;;24.69;54.59
33191;BME280;19554;42.652;23.364;2022-08-24T07:40:12;94489.91;;;25.30;53.78
33191;BME280;19554;42.652;23.364;2022-08-24T07:42:37;94529.84;;;25.70;53.97
33191;BME280;19554;42.652;23.364;2022-08-24T07:45:05;94530.31;;;25.94;53.64
33191;BME280;19554;42.652;23.364;2022-08-24T07:47:31;94526.84;;;26.11;52.35
33191;BME280;19554;42.652;23.364;2022-08-24T07:49:56;94522.16;;;26.12;51.59
33191;BME280;19554;42.652;23.364;2022-08-24T07:52:22;94524.50;;;26.13;52.16
33191;BME280;19554;42.652;23.364;2022-08-24T07:54:47;94524.50;;;26.42;50.23
33191;BME280;19554;42.652;23.364;2022-08-24T07:57:14;94522.19;;;26.30;50.83
33191;BME280;19554;42.652;23.364;2022-08-24T07:59:40;94503.03;;;26.19;50.91
33191;BME280;19554;42.652;23.364;2022-08-24T08:02:05;94515.13;;;26.25;50.45
33191;BME280;19554;42.652;23.364;2022-08-24T08:04:32;94454.53;;;25.87;50.12
33191;BME280;19554;42.652;23.364;2022-08-24T08:06:58;94508.13;;;26.49;49.95
33191;BME280;19554;42.652;23.364;2022-08-24T08:09:25;94472.16;;;26.58;48.51
33191;BME280;19554;42.652;23.364;2022-08-24T08:11:51;94442.03;;;26.54;47.59
33191;BME280;19554;42.652;23.364;2022-08-24T08:14:16;94506.50;;;27.12;47.14
33191;BME280;19554;42.652;23.364;2022-08-24T08:16:42;94503.31;;;27.32;46.82
33191;BME280;19554;42.652;23.364;2022-08-24T08:19:08;94500.97;;;27.23;46.92
33191;BME280;19554;42.652;23.364;2022-08-24T08:21:33;94504.16;;;26.86;47.47
33191;BME280;19554;42.652;23.364;2022-08-24T08:24:17;94507.31;;;26.45;49.09
33191;BME280;19554;42.652;23.364;2022-08-24T08:26:45;94507.72;;;26.29;49.59
33191;BME280;19554;42.652;23.364;2022-08-24T08:29:12;94503.81;;;26.27;50.08
33191;BME280;19554;42.652;23.364;2022-08-24T08:31:39;94505.75;;;26.15;50.36
33191;BME280;19554;42.652;23.364;2022-08-24T08:34:05;94469.78;;;25.92;50.37
33191;BME280;19554;42.652;23.364;2022-08-24T08:36:32;94500.28;;;26.22;50.30
33191;BME280;19554;42.652;23.364;2022-08-24T08:38:57;94508.88;;;26.28;49.97
33191;BME280;19554;42.652;23.364;2022-08-24T08:41:45;94502.63;;;26.24;50.41
33191;BME280;19554;42.652;23.364;2022-08-24T08:49:58;94501.41;;;25.86;51.12
33191;BME280;19554;42.652;23.364;2022-08-24T08:52:32;94500.25;;;25.97;50.62
33191;BME280;19554;42.652;23.364;2022-08-24T08:55:32;94511.22;;;26.44;50.35
33191;BME280;19554;42.652;23.364;2022-08-24T08:58:16;94442.41;;;26.53;48.73
33191;BME280;19554;42.652;23.364;2022-08-24T09:00:57;94491.63;;;26.92;46.83
33191;BME280;19554;42.652;23.364;2022-08-24T09:25:44;94506.03;;;28.09;43.78
33191;BME280;19554;42.652;23.364;2022-08-24T09:28:13;94506.75;;;28.17;43.19
33191;BME280;19554;42.652;23.364;2022-08-24T09:36:23;94499.91;;;27.91;43.99
33191;BME280;19554;42.652;23.364;2022-08-24T10:00:54;94448.53;;;27.17;44.85
33191;BME280;19554;42.652;23.364;2022-08-24T10:04:10;94455.56;;;27.26;44.52
33191;BME280;19554;42.652;23.364;2022-08-24T10:06:17;94457.88;;;27.31;44.46
33191;BME280;19554;42.652;23.364;2022-08-24T10:20:17;94437.34;;;27.60;41.25
33191;BME280;19554;42.652;23.364;2022-08-24T10:23:02;94433.16;;;27.38;41.79
33191;BME280;19554;42.652;23.364;2022-08-24T10:25:36;94433.59;;;27.33;41.67
33191;BME280;19554;42.652;23.364;2022-08-24T10:53:15;94431.47;;;26.56;43.87
33191;BME280;19554;42.652;23.364;2022-08-24T10:55:44;94429.09;;;26.65;44.60
33191;BME280;19554;42.652;23.364;2022-08-24T11:00:50;94422.78;;;26.83;44.83
33191;BME280;19554;42.652;23.364;2022-08-24T11:03:18;94423.13;;;27.03;45.19
33191;BME280;19554;42.652;23.364;2022-08-24T11:05:51;94433.69;;;27.01;44.54
33191;BME280;19554;42.652;23.364;2022-08-24T11:08:30;94427.06;;;26.98;44.62
33191;BME280;19554;42.652;23.364;2022-08-24T11:11:13;94427.50;;;26.82;46.14
33191;BME280;19554;42.652;23.364;2022-08-24T11:16:45;94422.88;;;26.40;47.17
33191;BME280;19554;42.652;23.364;2022-08-24T11:19:15;94420.94;;;26.33;47.60
33191;BME280;19554;42.652;23.364;2022-08-24T11:21:58;94405.31;;;25.91;48.03
33191;BME280;19554;42.652;23.364;2022-08-24T11:24:45;94417.41;;;26.11;47.73
33191;BME280;19554;42.652;23.364;2022-08-24T11:34:53;94350.97;;;26.21;46.92
33191;BME280;19554;42.652;23.364;2022-08-24T11:37:24;94409.63;;;26.10;47.40
33191;BME280;19554;42.652;23.364;2022-08-24T11:39:55;94397.47;;;26.14;47.65
33191;BME280;19554;42.652;23.364;2022-08-24T11:42:48;94407.28;;;26.15;47.96
33191;BME280;19554;42.652;23.364;2022-08-24T11:45:29;94403.34;;;26.16;48.20
33191;BME280;19554;42.652;23.364;2022-08-24T11:48:06;94397.13;;;26.12;47.96
33191;BME280;19554;42.652;23.364;2022-08-24T11:51:04;94407.25;;;26.22;48.00
33191;BME280;19554;42.652;23.364;2022-08-24T11:56:37;94417.41;;;26.26;47.36
33191;BME280;19554;42.652;23.364;2022-08-24T11:59:11;94408.06;;;26.05;50.21
33191;BME280;19554;42.652;23.364;2022-08-24T12:01:50;94328.72;;;25.73;50.14
33191;BME280;19554;42.652;23.364;2022-08-24T12:10:46;94400.19;;;26.43;49.76
33191;BME280;19554;42.652;23.364;2022-08-24T12:16:08;94397.09;;;26.19;50.74
33191;BME280;19554;42.652;23.364;2022-08-24T12:18:49;94393.97;;;26.10;50.65
33191;BME280;19554;42.652;23.364;2022-08-24T12:21:17;94398.69;;;25.85;50.93
33191;BME280;19554;42.652;23.364;2022-08-24T12:23:48;94384.59;;;25.83;50.60
33191;BME280;19554;42.652;23.364;2022-08-24T12:26:28;94384.59;;;25.83;50.00
33191;BME280;19554;42.652;23.364;2022-08-24T12:34:43;94354.94;;;25.85;51.83
33191;BME280;19554;42.652;23.364;2022-08-24T12:37:42;94388.50;;;25.74;52.31
33191;BME280;19554;42.652;23.364;2022-08-24T12:45:55;94383.28;;;25.12;54.45
33191;BME280;19554;42.652;23.364;2022-08-24T12:51:15;94377.25;;;24.67;54.42
33191;BME280;19554;42.652;23.364;2022-08-24T13:01:54;94388.31;;;25.03;53.68
33191;BME280;19554;42.652;23.364;2022-08-24T13:04:34;94396.88;;;24.98;55.04
33191;BME280;19554;42.652;23.364;2022-08-24T13:07:10;94386.75;;;25.09;54.25
33191;BME280;19554;42.652;23.364;2022-08-24T13:20:25;94390.03;;;24.49;56.13
33191;BME280;19554;42.652;23.364;2022-08-24T13:36:06;94427.69;;;24.29;57.31
33191;BME280;19554;42.652;23.364;2022-08-24T13:41:51;94426.16;;;24.31;57.22
33191;BME280;19554;42.652;23.364;2022-08-24T13:53:27;94418.47;;;24.48;56.46
33191;BME280;19554;42.652;23.364;2022-08-24T14:05:29;94393.69;;;24.81;55.77
33191;BME280;19554;42.652;23.364;2022-08-24T14:13:54;94382.94;;;25.24;53.31
33191;BME280;19554;42.652;23.364;2022-08-24T14:27:38;94408.00;;;25.51;52.64
33191;BME280;19554;42.652;23.364;2022-08-24T14:35:44;94409.38;;;25.02;53.70
33191;BME280;19554;42.652;23.364;2022-08-24T14:46:31;94414.59;;;25.47;52.45
33191;BME280;19554;42.652;23.364;2022-08-24T15:00:11;94411.06;;;25.36;53.72
33191;BME280;19554;42.652;23.364;2022-08-24T15:08:02;94401.63;;;25.15;53.98
33191;BME280;19554;42.652;23.364;2022-08-24T15:11:06;94408.53;;;24.91;54.58
33191;BME280;19554;42.652;23.364;2022-08-24T15:13:55;94364.25;;;24.43;55.10
33191;BME280;19554;42.652;23.364;2022-08-24T15:19:30;94414.56;;;24.42;55.88
33191;BME280;19554;42.652;23.364;2022-08-24T15:22:08;94407.28;;;24.08;56.72
33191;BME280;19554;42.652;23.364;2022-08-24T15:24:54;94439.34;;;24.26;56.65
33191;BME280;19554;42.652;23.364;2022-08-24T15:30:18;94442.31;;;24.06;57.65
33191;BME280;19554;42.652;23.364;2022-08-24T15:32:49;94437.66;;;24.07;57.31
33191;BME280;19554;42.652;23.364;2022-08-24T15:35:31;94444.63;;;24.01;57.57
33191;BME280;19554;42.652;23.364;2022-08-24T15:38:16;94434.50;;;24.05;57.91
33191;BME280;19554;42.652;23.364;2022-08-24T15:40:42;94424.78;;;24.04;57.97
33191;BME280;19554;42.652;23.364;2022-08-24T15:43:08;94433.81;;;24.15;57.75
33191;BME280;19554;42.652;23.364;2022-08-24T15:45:40;94430.72;;;24.20;57.34
33191;BME280;19554;42.652;23.364;2022-08-24T15:48:10;94393.97;;;24.03;57.41
33191;BME280;19554;42.652;23.364;2022-08-24T15:50:41;94433.06;;;24.18;57.98
33191;BME280;19554;42.652;23.364;2022-08-24T15:58:47;94400.88;;;23.86;58.19
33191;BME280;19554;42.652;23.364;2022-08-24T16:04:10;94447.09;;;24.20;58.52
33191;BME280;19554;42.652;23.364;2022-08-24T16:06:46;94442.50;;;24.31;58.06
33191;BME280;19554;42.652;23.364;2022-08-24T16:12:01;94448.31;;;24.26;58.79
33191;BME280;19554;42.652;23.364;2022-08-24T16:14:34;94451.78;;;24.23;58.97
33191;BME280;19554;42.652;23.364;2022-08-24T16:19:59;94444.03;;;24.25;58.91
33191;BME280;19554;42.652;23.364;2022-08-24T16:22:34;94449.84;;;24.24;58.84
33191;BME280;19554;42.652;23.364;2022-08-24T16:25:31;94457.28;;;24.30;58.93
33191;BME280;19554;42.652;23.364;2022-08-24T16:28:04;94461.25;;;24.36;58.52
33191;BME280;19554;42.652;23.364;2022-08-24T16:30:47;94469.81;;;24.35;58.37
33191;BME280;19554;42.652;23.364;2022-08-24T16:33:44;94462.41;;;24.35;58.61
33191;BME280;19554;42.652;23.364;2022-08-24T16:36:13;94460.16;;;24.41;58.02
33191;BME280;19554;42.652;23.364;2022-08-24T16:38:41;94449.66;;;24.47;58.04
33191;BME280;19554;42.652;23.364;2022-08-24T16:41:10;94449.69;;;24.54;57.82
33191;BME280;19554;42.652;23.364;2022-08-24T16:43:38;94424.78;;;24.59;57.76
33191;BME280;19554;42.652;23.364;2022-08-24T16:46:05;94432.63;;;24.68;57.46
33191;BME280;19554;42.652;23.364;2022-08-24T16:48:31;94441.91;;;24.56;57.96
33191;BME280;19554;42.652;23.364;2022-08-24T16:50:57;94441.50;;;24.54;58.18
33191;BME280;19554;42.652;23.364;2022-08-24T16:53:23;94439.03;;;24.34;59.11
33191;BME280;19554;42.652;23.364;2022-08-24T16:55:49;94455.00;;;24.36;59.07
33191;BME280;19554;42.652;23.364;2022-08-24T16:58:16;94460.81;;;24.31;58.97
33191;BME280;19554;42.652;23.364;2022-08-24T17:00:42;94462.34;;;24.28;59.31
33191;BME280;19554;42.652;23.364;2022-08-24T17:03:10;94480.28;;;24.29;59.51
33191;BME280;19554;42.652;23.364;2022-08-24T17:05:36;94453.25;;;24.10;59.43
33191;BME280;19554;42.652;23.364;2022-08-24T17:08:02;94487.72;;;24.32;59.27
33191;BME280;19554;42.652;23.364;2022-08-24T17:10:28;94404.69;;;23.78;59.59
33191;BME280;19554;42.652;23.364;2022-08-24T17:12:53;94443.81;;;23.97;59.82
33191;BME280;19554;42.652;23.364;2022-08-24T17:15:19;94487.56;;;24.15;59.75
33191;BME280;19554;42.652;23.364;2022-08-24T17:17:54;94495.38;;;24.16;60.36
33191;BME280;19554;42.652;23.364;2022-08-24T17:20:20;94462.53;;;24.02;60.09
33191;BME280;19554;42.652;23.364;2022-08-24T17:22:45;94483.41;;;24.28;60.17